createdAt,value
2023-09-17T00:01:24.932Z,26.77
2023-09-17T00:03:53.533Z,24.95
2023-09-17T00:06:21.038Z,21.65
2023-09-17T00:08:47.591Z,23.60
2023-09-17T00:11:14.120Z,21.35
2023-09-17T00:13:40.728Z,25.50
2023-09-17T00:16:07.289Z,26.83
2023-09-17T00:18:33.909Z,27.42
2023-09-17T00:21:00.426Z,27.85
2023-09-17T00:23:26.973Z,23.58
2023-09-17T00:25:53.490Z,20.70
2023-09-17T00:28:19.985Z,25.58
2023-09-17T00:30:46.532Z,24.67
2023-09-17T00:33:13.075Z,23.55
2023-09-17T00:35:39.563Z,21.10
2023-09-17T00:38:06.222Z,25.45
2023-09-17T00:40:38.510Z,26.23
2023-09-17T00:43:05.183Z,22.17
2023-09-17T00:45:32.562Z,19.50
2023-09-17T00:48:01.581Z,22.52
2023-09-17T00:50:28.371Z,22.70
2023-09-17T00:52:54.902Z,21.15
2023-09-17T00:55:21.489Z,24.70
2023-09-17T00:57:49.021Z,24.77
2023-09-17T01:00:15.924Z,22.77
2023-09-17T01:02:43.791Z,24.23
2023-09-17T01:05:10.508Z,26.25
2023-09-17T01:07:37.238Z,22.80
2023-09-17T01:10:05.466Z,24.67
2023-09-17T01:12:32.852Z,22.08
2023-09-17T01:14:59.614Z,22.52
2023-09-17T01:17:28.620Z,26.48
2023-09-17T01:19:56.256Z,26.27
2023-09-17T01:22:39.903Z,21.50
2023-09-17T01:25:24.917Z,23.75
2023-09-17T01:27:51.516Z,23.02
2023-09-17T01:30:18.101Z,28.30
2023-09-17T01:32:44.976Z,24.55
2023-09-17T01:35:16.631Z,23.42
2023-09-17T01:37:48.296Z,21.35
2023-09-17T01:42:48.767Z,22.25
2023-09-17T01:45:16.001Z,24.20
2023-09-17T01:47:43.985Z,19.90
2023-09-17T01:50:12.357Z,21.08
2023-09-17T01:52:41.165Z,24.42
2023-09-17T01:55:09.792Z,24.02
2023-09-17T01:57:36.696Z,22.85
2023-09-17T02:00:15.586Z,26.98
2023-09-17T02:02:45.000Z,22.75
2023-09-17T02:05:11.748Z,23.90
2023-09-17T02:07:38.271Z,20.38
2023-09-17T02:10:05.167Z,20.27
2023-09-17T02:12:31.698Z,22.48
2023-09-17T02:14:58.391Z,22.13
2023-09-17T02:17:25.068Z,19.95
2023-09-17T02:19:51.723Z,23.10
2023-09-17T02:22:18.323Z,22.05
2023-09-17T02:24:46.458Z,22.83
2023-09-17T02:27:14.993Z,24.30
2023-09-17T02:29:42.041Z,22.73
2023-09-17T02:32:08.653Z,20.63
2023-09-17T02:34:35.439Z,29.85
2023-09-17T02:37:02.016Z,22.80
2023-09-17T02:39:28.516Z,21.98
2023-09-17T02:41:56.651Z,23.17
2023-09-17T02:44:23.694Z,22.23
2023-09-17T02:46:50.268Z,20.80
2023-09-17T02:49:16.896Z,19.85
2023-09-17T02:51:43.446Z,22.00
2023-09-17T02:54:10.057Z,23.63
2023-09-17T02:56:36.556Z,23.17
2023-09-17T02:59:03.058Z,21.73
2023-09-17T03:01:29.635Z,21.35
2023-09-17T03:03:56.175Z,21.48
2023-09-17T03:06:22.705Z,25.73
2023-09-17T03:08:49.446Z,24.95
2023-09-17T03:11:18.273Z,22.27
2023-09-17T03:13:47.433Z,20.52
2023-09-17T03:16:16.797Z,26.30
2023-09-17T03:18:44.501Z,25.00
2023-09-17T03:21:11.256Z,25.02
2023-09-17T03:23:38.055Z,26.30
2023-09-17T03:26:05.166Z,25.05
2023-09-17T03:28:32.852Z,22.80
2023-09-17T03:31:00.240Z,26.38
2023-09-17T03:33:27.180Z,25.48
2023-09-17T03:35:53.852Z,24.50
2023-09-17T03:38:20.359Z,26.85
2023-09-17T03:40:47.022Z,26.25
2023-09-17T03:43:13.765Z,24.08
2023-09-17T03:45:40.292Z,26.90
2023-09-17T03:48:07.073Z,25.30
2023-09-17T03:50:33.704Z,25.00
2023-09-17T03:53:03.357Z,22.92
2023-09-17T03:55:29.994Z,25.77
2023-09-17T03:57:57.951Z,32.20
2023-09-17T04:00:24.995Z,28.17
2023-09-17T04:02:53.534Z,24.60
2023-09-17T04:05:22.456Z,28.58
2023-09-17T04:07:49.617Z,30.98
2023-09-17T04:10:18.522Z,28.95
2023-09-17T04:12:46.305Z,25.23
2023-09-17T04:15:18.735Z,27.05
2023-09-17T04:17:45.814Z,25.52
2023-09-17T04:20:15.186Z,26.95
2023-09-17T04:22:42.566Z,28.48
2023-09-17T04:25:12.371Z,27.23
2023-09-17T04:27:41.544Z,27.02
2023-09-17T04:30:08.750Z,30.75
2023-09-17T04:32:39.113Z,28.35
2023-09-17T04:35:06.955Z,25.70
2023-09-17T04:37:34.358Z,27.70
2023-09-17T04:40:00.992Z,29.90
2023-09-17T04:42:27.982Z,28.05
2023-09-17T04:44:54.761Z,30.02
2023-09-17T04:47:21.240Z,31.02
2023-09-17T04:49:47.743Z,34.22
2023-09-17T04:52:14.260Z,33.83
2023-09-17T04:54:40.861Z,31.75
2023-09-17T04:57:08.634Z,31.50
2023-09-17T04:59:35.180Z,31.17
2023-09-17T05:02:01.754Z,31.60
2023-09-17T05:04:28.401Z,32.00
2023-09-17T05:06:54.997Z,32.67
2023-09-17T05:09:21.804Z,34.63
2023-09-17T05:11:48.345Z,36.45
2023-09-17T05:14:14.872Z,31.15
2023-09-17T05:16:41.523Z,33.17
2023-09-17T05:19:08.203Z,33.75
2023-09-17T05:21:34.703Z,34.15
2023-09-17T05:24:01.209Z,30.63
2023-09-17T05:26:27.691Z,33.45
2023-09-17T05:28:54.287Z,29.30
2023-09-17T05:31:20.861Z,32.85
2023-09-17T05:33:47.438Z,31.13
2023-09-17T05:36:14.049Z,36.70
2023-09-17T05:38:40.614Z,32.83
2023-09-17T05:41:07.160Z,34.42
2023-09-17T05:43:33.679Z,32.78
2023-09-17T05:46:00.401Z,34.05
2023-09-17T05:48:27.040Z,36.80
2023-09-17T05:50:59.293Z,31.63
2023-09-17T05:53:26.358Z,35.40
2023-09-17T05:55:52.869Z,34.72
2023-09-17T05:58:19.367Z,37.33
2023-09-17T06:00:45.948Z,31.95
2023-09-17T06:03:12.637Z,42.72
2023-09-17T06:05:40.085Z,36.88
2023-09-17T06:08:06.585Z,39.03
2023-09-17T06:10:33.193Z,38.10
2023-09-17T06:12:59.817Z,45.17
2023-09-17T06:15:26.851Z,46.97
2023-09-17T06:17:53.335Z,44.75
2023-09-17T06:20:19.883Z,41.85
2023-09-17T06:22:48.408Z,43.45
2023-09-17T06:25:15.410Z,45.83
2023-09-17T06:27:41.879Z,43.80
2023-09-17T06:30:08.925Z,41.80
2023-09-17T06:32:35.975Z,37.70
2023-09-17T06:35:03.182Z,38.92
2023-09-17T06:37:29.760Z,39.00
2023-09-17T06:39:56.297Z,36.47
2023-09-17T06:42:22.819Z,41.38
2023-09-17T06:44:49.510Z,38.25
2023-09-17T06:47:17.148Z,36.33
2023-09-17T06:49:43.870Z,41.40
2023-09-17T06:52:10.502Z,37.60
2023-09-17T06:54:37.062Z,39.05
2023-09-17T06:57:03.926Z,35.95
2023-09-17T06:59:30.428Z,34.13
2023-09-17T07:01:56.956Z,28.58
2023-09-17T07:04:23.625Z,29.95
2023-09-17T07:06:50.182Z,29.00
2023-09-17T07:09:16.651Z,30.95
2023-09-17T07:11:43.126Z,35.97
2023-09-17T07:14:12.418Z,30.23
2023-09-17T07:16:40.529Z,35.58
2023-09-17T07:19:07.281Z,35.72
2023-09-17T07:21:33.875Z,34.22
2023-09-17T07:24:00.603Z,30.90
2023-09-17T07:26:27.229Z,31.42
2023-09-17T07:28:53.892Z,32.97
2023-09-17T07:31:20.561Z,31.27
2023-09-17T07:33:47.155Z,34.63
2023-09-17T07:36:14.910Z,30.45
2023-09-17T07:38:41.657Z,32.67
2023-09-17T07:41:08.205Z,33.20
2023-09-17T07:43:34.730Z,32.97
2023-09-17T07:46:01.343Z,30.13
2023-09-17T07:48:30.655Z,31.70
2023-09-17T07:51:01.590Z,35.97
2023-09-17T07:53:28.454Z,32.45
2023-09-17T07:55:55.337Z,35.22
2023-09-17T07:58:21.907Z,38.15
2023-09-17T08:00:49.493Z,37.20
2023-09-17T08:03:19.686Z,34.50
2023-09-17T08:05:47.689Z,35.70
2023-09-17T08:08:15.616Z,38.95
2023-09-17T08:10:42.395Z,37.22
2023-09-17T08:13:10.034Z,32.47
2023-09-17T08:15:36.569Z,35.55
2023-09-17T08:18:03.298Z,35.05
2023-09-17T08:20:30.020Z,32.55
2023-09-17T08:22:58.086Z,33.05
2023-09-17T08:25:24.722Z,31.92
2023-09-17T08:27:53.097Z,29.75
2023-09-17T08:30:21.141Z,34.78
2023-09-17T08:32:47.671Z,34.83
2023-09-17T08:35:16.077Z,33.03
2023-09-17T08:37:43.893Z,33.08
2023-09-17T08:40:15.154Z,27.70
2023-09-17T08:42:43.219Z,33.03
2023-09-17T08:45:11.266Z,37.97
2023-09-17T08:47:38.851Z,34.13
2023-09-17T08:50:11.909Z,36.30
2023-09-17T08:52:42.893Z,36.40
2023-09-17T08:55:11.389Z,40.60
2023-09-17T08:57:39.114Z,35.88
2023-09-17T09:00:11.478Z,38.80
2023-09-17T09:02:45.913Z,36.53
2023-09-17T09:05:16.233Z,38.58
2023-09-17T09:07:45.195Z,35.90
2023-09-17T09:10:13.824Z,38.63
2023-09-17T09:12:41.347Z,38.33
2023-09-17T09:15:11.091Z,36.38
2023-09-17T09:17:40.061Z,45.88
2023-09-17T09:20:10.896Z,37.35
2023-09-17T09:22:38.652Z,40.30
2023-09-17T09:25:07.366Z,35.50
2023-09-17T09:27:33.966Z,39.08
2023-09-17T09:30:01.011Z,40.15
2023-09-17T09:32:27.703Z,38.20
2023-09-17T09:34:54.512Z,36.80
2023-09-17T09:37:25.523Z,36.00
2023-09-17T09:39:52.142Z,36.53
2023-09-17T09:42:18.728Z,37.03
2023-09-17T09:44:45.421Z,37.10
2023-09-17T09:47:14.413Z,35.83
2023-09-17T09:49:45.049Z,34.97
2023-09-17T09:52:13.192Z,34.50
2023-09-17T09:54:44.081Z,34.25
2023-09-17T09:57:17.530Z,33.47
2023-09-17T09:59:46.515Z,29.63
2023-09-17T10:02:15.289Z,27.60
2023-09-17T10:04:42.702Z,28.90
2023-09-17T10:07:09.661Z,27.80
2023-09-17T10:09:37.050Z,27.05
2023-09-17T10:12:04.932Z,28.10
2023-09-17T10:14:36.204Z,28.30
2023-09-17T10:17:03.382Z,27.60
2023-09-17T10:19:32.237Z,27.42
2023-09-17T10:22:00.072Z,26.20
2023-09-17T10:24:27.764Z,25.42
2023-09-17T10:26:55.134Z,23.80
2023-09-17T10:29:22.519Z,23.88
2023-09-17T10:31:49.807Z,27.63
2023-09-17T10:34:17.188Z,32.10
2023-09-17T10:36:44.064Z,28.92
2023-09-17T10:39:11.944Z,25.58
2023-09-17T10:41:38.880Z,28.65
2023-09-17T10:44:06.633Z,28.45
2023-09-17T10:46:33.333Z,28.23
2023-09-17T10:49:00.242Z,25.85
2023-09-17T10:51:29.821Z,27.77
2023-09-17T10:53:56.352Z,25.38
2023-09-17T10:56:23.548Z,22.67
2023-09-17T10:58:51.521Z,25.30
2023-09-17T11:01:21.842Z,22.65
2023-09-17T11:04:01.191Z,27.08
2023-09-17T11:06:30.356Z,27.23
2023-09-17T11:08:57.641Z,25.70
2023-09-17T11:11:30.290Z,26.95
2023-09-17T11:13:57.642Z,26.50
2023-09-17T11:16:28.281Z,25.80
2023-09-17T11:19:13.292Z,29.95
2023-09-17T11:21:50.309Z,31.90
2023-09-17T11:24:20.180Z,28.85
2023-09-17T11:26:47.191Z,27.92
2023-09-17T11:29:15.552Z,27.38
2023-09-17T11:31:51.299Z,30.70
2023-09-17T11:34:17.868Z,28.27
2023-09-17T11:36:46.082Z,34.88
2023-09-17T11:39:16.868Z,31.02
2023-09-17T11:41:47.603Z,35.38
2023-09-17T11:44:14.542Z,36.78
2023-09-17T11:46:42.130Z,38.38
2023-09-17T11:49:09.779Z,40.13
2023-09-17T11:51:45.860Z,37.15
2023-09-17T11:54:16.618Z,36.78
2023-09-17T11:56:48.223Z,38.42
2023-09-17T11:59:17.290Z,41.03
2023-09-17T12:01:45.149Z,38.70
2023-09-17T12:04:12.696Z,41.55
2023-09-17T12:06:41.974Z,40.75
2023-09-17T12:09:18.320Z,40.95
2023-09-17T12:11:47.358Z,40.63
2023-09-17T12:14:14.831Z,45.75
2023-09-17T12:16:41.661Z,45.45
2023-09-17T12:19:17.738Z,46.70
2023-09-17T12:21:47.139Z,47.50
2023-09-17T12:24:29.364Z,45.22
2023-09-17T12:27:15.947Z,42.35
2023-09-17T12:29:42.526Z,47.45
2023-09-17T12:32:11.312Z,48.33
2023-09-17T12:34:39.001Z,47.13
2023-09-17T12:37:06.815Z,46.30
2023-09-17T12:39:33.430Z,47.83
2023-09-17T12:41:59.943Z,52.58
2023-09-17T12:44:27.540Z,50.20
2023-09-17T12:46:54.390Z,46.63
2023-09-17T12:49:25.145Z,50.25
2023-09-17T12:51:52.773Z,54.55
2023-09-17T12:54:20.913Z,52.60
2023-09-17T12:56:47.436Z,60.05
2023-09-17T12:59:14.025Z,55.17
2023-09-17T13:01:56.543Z,54.20
2023-09-17T13:04:40.333Z,57.83
2023-09-17T13:07:19.180Z,59.03
2023-09-17T13:09:46.906Z,62.55
2023-09-17T13:12:20.567Z,64.95
2023-09-17T13:14:48.981Z,65.72
2023-09-17T13:17:16.507Z,66.65
2023-09-17T13:19:43.252Z,59.78
2023-09-17T13:22:10.120Z,62.47
2023-09-17T13:24:36.876Z,68.28
2023-09-17T13:27:06.187Z,65.75
2023-09-17T13:29:36.064Z,60.90
2023-09-17T13:32:02.679Z,59.95
2023-09-17T13:34:30.501Z,63.33
2023-09-17T13:37:00.132Z,59.13
2023-09-17T13:39:26.688Z,63.95
2023-09-17T13:41:57.367Z,58.33
2023-09-17T13:44:23.952Z,69.35
2023-09-17T13:46:50.691Z,59.65
2023-09-17T13:49:17.213Z,61.10
2023-09-17T13:51:43.814Z,61.78
2023-09-17T13:54:10.375Z,60.35
2023-09-17T13:56:37.849Z,65.18
2023-09-17T13:59:04.797Z,56.67
2023-09-17T14:01:31.922Z,61.50
2023-09-17T14:03:58.531Z,63.08
2023-09-17T14:06:25.008Z,61.38
2023-09-17T14:08:51.690Z,58.85
2023-09-17T14:11:19.424Z,61.92
2023-09-17T14:13:45.979Z,58.65
2023-09-17T14:16:12.499Z,61.25
2023-09-17T14:18:39.035Z,54.22
2023-09-17T14:21:05.654Z,55.33
2023-09-17T14:23:32.210Z,51.65
2023-09-17T14:25:59.203Z,54.03
2023-09-17T14:28:25.866Z,55.85
2023-09-17T14:30:55.313Z,55.83
2023-09-17T14:33:22.474Z,56.08
2023-09-17T14:35:49.045Z,54.33
2023-09-17T14:38:15.580Z,53.30
2023-09-17T14:40:42.159Z,59.50
2023-09-17T14:43:08.690Z,50.30
2023-09-17T14:45:35.261Z,47.83
2023-09-17T14:48:01.797Z,54.22
2023-09-17T14:50:28.561Z,50.58
2023-09-17T14:52:55.107Z,50.67
2023-09-17T14:55:22.320Z,42.47
2023-09-17T14:57:48.916Z,41.15
2023-09-17T15:00:15.760Z,40.20
2023-09-17T15:02:42.930Z,48.20
2023-09-17T15:05:10.262Z,44.50
2023-09-17T15:07:40.400Z,41.25
2023-09-17T15:10:07.468Z,37.22
2023-09-17T15:12:33.997Z,40.03
2023-09-17T15:15:00.588Z,44.78
2023-09-17T15:17:29.513Z,36.42
2023-09-17T15:19:56.280Z,42.53
2023-09-17T15:22:23.172Z,40.47
2023-09-17T15:24:49.826Z,41.38
2023-09-17T15:27:16.462Z,37.90
2023-09-17T15:29:43.161Z,37.38
2023-09-17T15:32:09.990Z,44.33
2023-09-17T15:34:39.559Z,43.58
2023-09-17T15:37:06.387Z,41.53
2023-09-17T15:39:33.385Z,37.63
2023-09-17T15:42:01.207Z,47.55
2023-09-17T15:44:27.963Z,41.85
2023-09-17T15:46:55.589Z,49.15
2023-09-17T15:49:22.144Z,43.58
2023-09-17T15:51:49.328Z,45.13
2023-09-17T15:54:16.051Z,41.15
2023-09-17T15:56:42.587Z,55.25
2023-09-17T15:59:10.442Z,49.55
2023-09-17T16:01:41.702Z,44.67
2023-09-17T16:04:08.567Z,50.13
2023-09-17T16:06:35.189Z,43.92
2023-09-17T16:09:01.896Z,44.63
2023-09-17T16:11:28.505Z,45.95
2023-09-17T16:13:55.447Z,44.97
2023-09-17T16:16:22.322Z,49.97
2023-09-17T16:18:49.077Z,55.05
2023-09-17T16:21:16.194Z,46.55
2023-09-17T16:23:42.704Z,55.17
2023-09-17T16:26:09.324Z,44.53
2023-09-17T16:28:35.870Z,52.90
2023-09-17T16:31:03.012Z,43.45
2023-09-17T16:33:29.673Z,50.33
2023-09-17T16:35:56.277Z,44.88
2023-09-17T16:38:22.777Z,50.58
2023-09-17T16:40:49.788Z,43.63
2023-09-17T16:43:16.451Z,46.75
2023-09-17T16:45:43.896Z,46.50
2023-09-17T16:48:11.518Z,48.70
2023-09-17T16:50:47.253Z,51.22
2023-09-17T16:53:14.472Z,48.97
2023-09-17T16:55:41.849Z,50.50
2023-09-17T16:58:08.511Z,47.58
2023-09-17T17:00:35.049Z,43.65
2023-09-17T17:03:01.774Z,49.47
2023-09-17T17:05:28.448Z,49.08
2023-09-17T17:07:55.063Z,50.72
2023-09-17T17:10:21.875Z,50.53
2023-09-17T17:12:48.465Z,43.40
2023-09-17T17:15:14.980Z,42.80
2023-09-17T17:17:41.692Z,44.25
2023-09-17T17:20:08.806Z,49.10
2023-09-17T17:22:43.237Z,47.28
2023-09-17T17:25:10.432Z,46.97
2023-09-17T17:27:37.039Z,42.97
2023-09-17T17:30:03.844Z,46.13
2023-09-17T17:32:31.029Z,48.45
2023-09-17T17:34:57.652Z,48.85
2023-09-17T17:37:24.376Z,54.00
2023-09-17T17:39:50.968Z,50.28
2023-09-17T17:42:17.514Z,45.92
2023-09-17T17:44:44.017Z,51.95
2023-09-17T17:47:10.623Z,47.28
2023-09-17T17:49:37.175Z,46.00
2023-09-17T17:52:03.833Z,48.80
2023-09-17T17:54:30.396Z,51.50
2023-09-17T17:56:58.483Z,42.45
2023-09-17T17:59:25.288Z,46.95
2023-09-17T18:01:51.830Z,45.40
2023-09-17T18:04:18.337Z,52.35
2023-09-17T18:06:45.104Z,40.00
2023-09-17T18:09:11.710Z,48.35
2023-09-17T18:11:38.224Z,41.80
2023-09-17T18:14:04.914Z,42.25
2023-09-17T18:16:31.534Z,47.75
2023-09-17T18:18:58.022Z,39.80
2023-09-17T18:21:24.540Z,40.85
2023-09-17T18:23:51.392Z,43.20
2023-09-17T18:26:18.200Z,39.70
2023-09-17T18:28:44.813Z,44.33
2023-09-17T18:31:14.615Z,45.95
2023-09-17T18:33:42.730Z,49.67
2023-09-17T18:36:09.351Z,53.10
2023-09-17T18:38:35.893Z,53.03
2023-09-17T18:41:02.528Z,50.47
2023-09-17T18:43:29.428Z,51.40
2023-09-17T18:45:55.966Z,42.15
2023-09-17T18:48:23.608Z,47.40
2023-09-17T18:50:50.242Z,43.90
2023-09-17T18:53:17.065Z,42.30
2023-09-17T18:55:43.932Z,43.85
2023-09-17T18:58:10.566Z,49.95
2023-09-17T19:00:37.142Z,47.40
2023-09-17T19:03:03.815Z,47.95
2023-09-17T19:05:30.549Z,43.70
2023-09-17T19:07:57.096Z,46.75
2023-09-17T19:10:24.039Z,46.30
2023-09-17T19:12:57.295Z,48.20
2023-09-17T19:15:24.771Z,40.45
2023-09-17T19:17:51.367Z,42.13
2023-09-17T19:20:18.159Z,42.78
2023-09-17T19:22:44.789Z,41.42
2023-09-17T19:25:14.651Z,45.50
2023-09-17T19:27:42.676Z,45.22
2023-09-17T19:30:09.453Z,39.05
2023-09-17T19:32:37.134Z,48.53
2023-09-17T19:35:04.129Z,48.88
2023-09-17T19:37:30.699Z,47.85
2023-09-17T19:39:57.529Z,42.25
2023-09-17T19:42:26.929Z,42.40
2023-09-17T19:44:53.449Z,42.35
2023-09-17T19:47:20.141Z,48.15
2023-09-17T19:49:46.800Z,37.38
2023-09-17T19:52:13.344Z,44.58
2023-09-17T19:54:45.146Z,39.38
2023-09-17T19:57:11.956Z,39.20
2023-09-17T19:59:38.560Z,47.40
2023-09-17T20:02:05.184Z,43.53
2023-09-17T20:04:31.819Z,43.85
2023-09-17T20:06:59.632Z,42.05
2023-09-17T20:09:26.641Z,37.40
2023-09-17T20:11:56.550Z,38.88
2023-09-17T20:14:23.231Z,41.10
2023-09-17T20:16:49.969Z,50.25
2023-09-17T20:19:16.538Z,41.85
2023-09-17T20:21:43.345Z,43.58
2023-09-17T20:24:10.130Z,46.65
2023-09-17T20:26:37.893Z,43.00
2023-09-17T20:29:05.305Z,48.00
2023-09-17T20:31:32.092Z,52.05
2023-09-17T20:33:58.692Z,43.75
2023-09-17T20:36:25.702Z,42.75
2023-09-17T20:38:52.733Z,40.13
2023-09-17T20:41:19.706Z,46.95
2023-09-17T20:43:46.263Z,46.70
2023-09-17T20:46:13.016Z,49.10
2023-09-17T20:48:39.635Z,43.28
2023-09-17T20:51:06.303Z,41.45
2023-09-17T20:53:33.360Z,44.00
2023-09-17T20:56:00.273Z,42.30
2023-09-17T20:58:26.836Z,41.90
2023-09-17T21:00:53.489Z,41.45
2023-09-17T21:03:20.186Z,39.10
2023-09-17T21:05:50.072Z,41.33
2023-09-17T21:08:16.857Z,39.95
2023-09-17T21:10:43.767Z,42.95
2023-09-17T21:13:12.224Z,39.25
2023-09-17T21:15:39.534Z,43.03
2023-09-17T21:18:06.994Z,49.78
2023-09-17T21:20:33.694Z,45.10
2023-09-17T21:23:01.297Z,39.58
2023-09-17T21:25:28.583Z,44.60
2023-09-17T21:27:55.324Z,43.97
2023-09-17T21:30:21.920Z,47.10
2023-09-17T21:32:48.641Z,41.83
2023-09-17T21:35:15.707Z,45.05
2023-09-17T21:37:42.255Z,42.03
2023-09-17T21:40:09.645Z,40.00
2023-09-17T21:42:37.060Z,43.55
2023-09-17T21:45:04.251Z,53.97
2023-09-17T21:47:30.982Z,41.65
2023-09-17T21:50:00.927Z,47.30
2023-09-17T21:52:30.005Z,42.83
2023-09-17T21:54:59.365Z,49.35
2023-09-17T21:57:26.176Z,50.60
2023-09-17T21:59:53.214Z,57.13
2023-09-17T22:02:20.281Z,55.78
2023-09-17T22:04:47.120Z,54.83
2023-09-17T22:07:13.641Z,52.83
2023-09-17T22:09:40.601Z,50.47
2023-09-17T22:12:08.430Z,47.13
2023-09-17T22:14:35.687Z,55.03
2023-09-17T22:17:03.258Z,49.72
2023-09-17T22:19:30.523Z,46.90
2023-09-17T22:21:57.009Z,48.72
2023-09-17T22:24:24.523Z,44.22
2023-09-17T22:26:51.072Z,47.22
2023-09-17T22:29:17.748Z,47.35
2023-09-17T22:31:44.581Z,43.33
2023-09-17T22:34:11.087Z,43.72
2023-09-17T22:36:38.014Z,46.53
2023-09-17T22:39:05.005Z,39.05
2023-09-17T22:41:31.570Z,46.08
2023-09-17T22:44:11.777Z,44.13
2023-09-17T22:46:43.329Z,39.60
2023-09-17T22:49:09.981Z,38.90
2023-09-17T22:51:37.146Z,42.45
2023-09-17T22:54:03.925Z,43.72
2023-09-17T22:56:30.720Z,43.88
2023-09-17T22:58:57.469Z,44.45
2023-09-17T23:01:26.028Z,46.42
2023-09-17T23:03:52.624Z,41.97
2023-09-17T23:06:19.203Z,41.47
2023-09-17T23:08:46.060Z,37.75
2023-09-17T23:11:13.266Z,39.45
2023-09-17T23:13:40.914Z,44.22
2023-09-17T23:16:07.480Z,35.33
2023-09-17T23:18:35.318Z,40.65
2023-09-17T23:21:04.787Z,38.65
2023-09-17T23:23:31.780Z,39.03
2023-09-17T23:25:58.402Z,35.42
2023-09-17T23:28:33.511Z,43.17
2023-09-17T23:31:04.616Z,36.28
2023-09-17T23:33:32.488Z,36.13
2023-09-17T23:36:01.001Z,38.10
2023-09-17T23:38:28.501Z,38.17
2023-09-17T23:40:55.953Z,36.70
2023-09-17T23:43:22.766Z,41.83
2023-09-17T23:45:49.331Z,37.17
2023-09-17T23:48:16.007Z,43.50
2023-09-17T23:50:45.302Z,42.10
2023-09-17T23:53:11.805Z,47.58
2023-09-17T23:55:38.329Z,47.65
2023-09-17T23:58:04.920Z,42.70
